Time;durP1;ratioP1;P1;durP2;ratioP2;P2;SDS_P1;SDS_P2;PMS_P1;PMS_P2;Temp;Humidity;BMP_temperature;BMP_pressure;BME280_temperature;BME280_humidity;BME280_pressure;Samples;Min_cycle;Max_cycle;Signal;HPM_P1;HPM_P2
2021/01/19 00:00:36;;;;;;;16.75;9.70;;;3.80;86.20;;;;;;5065831;28;20681;-60
2021/01/19 00:03:01;;;;;;;16.75;9.38;;;3.80;86.10;;;;;;5069098;28;20486;-58
2021/01/19 00:05:27;;;;;;;19.10;10.38;;;3.90;86.10;;;;;;5062301;28;20092;-61
2021/01/19 00:07:53;;;;;;;16.05;9.05;;;3.90;85.60;;;;;;5073196;28;20040;-59
2021/01/19 00:10:21;;;;;;;17.17;9.60;;;3.80;85.80;;;;;;5070772;28;20115;-56
2021/01/19 00:12:47;;;;;;;17.10;10.00;;;3.70;86.60;;;;;;5073970;28;20094;-57
2021/01/19 00:15:13;;;;;;;13.35;9.88;;;3.70;86.60;;;;;;5047747;28;20029;-58
2021/01/19 00:17:39;;;;;;;18.83;9.50;;;3.70;86.40;;;;;;5053132;28;20033;-56
2021/01/19 00:20:05;;;;;;;17.90;9.55;;;3.60;86.50;;;;;;5065646;28;20055;-58
2021/01/19 00:22:32;;;;;;;15.35;9.73;;;3.70;86.20;;;;;;5073749;28;20554;-53
2021/01/19 00:24:59;;;;;;;18.27;9.60;;;3.80;86.00;;;;;;5057509;28;20045;-56
2021/01/19 00:27:24;;;;;;;13.00;9.50;;;3.90;85.60;;;;;;5054610;28;20083;-58
2021/01/19 00:29:50;;;;;;;13.65;10.05;;;3.90;85.20;;;;;;5036288;28;20242;-57
2021/01/19 00:32:15;;;;;;;17.52;9.57;;;3.90;85.30;;;;;;5054184;28;20121;-58
2021/01/19 00:34:41;;;;;;;12.18;9.23;;;3.90;85.60;;;;;;5076718;22;20559;-61
2021/01/19 00:37:07;;;;;;;12.27;9.18;;;3.90;85.60;;;;;;5054683;28;20132;-60
2021/01/19 00:39:33;;;;;;;11.65;8.82;;;3.80;85.70;;;;;;5054829;28;20309;-60
2021/01/19 00:41:58;;;;;;;12.52;9.63;;;3.70;86.10;;;;;;5054441;28;20123;-60
2021/01/19 00:44:24;;;;;;;16.17;9.32;;;3.70;85.90;;;;;;5053877;28;20363;-60
2021/01/19 00:46:51;;;;;;;14.18;10.00;;;3.70;86.30;;;;;;5054451;28;20103;-61
2021/01/19 00:49:17;;;;;;;14.38;9.23;;;3.80;86.20;;;;;;5054074;28;20446;-60
2021/01/19 00:51:43;;;;;;;16.90;9.70;;;3.70;86.60;;;;;;5035734;28;20064;-61
2021/01/19 00:54:09;;;;;;;12.10;8.90;;;3.70;86.50;;;;;;5048579;28;20059;-60
2021/01/19 00:56:43;;;;;;;16.65;9.65;;;3.70;86.60;;;;;;5044009;28;20037;-60
2021/01/19 00:59:09;;;;;;;15.68;10.05;;;3.70;86.90;;;;;;5043580;28;20365;-60
2021/01/19 01:01:42;;;;;;;13.52;8.93;;;3.70;86.70;;;;;;5024861;28;20052;-61
2021/01/19 01:04:09;;;;;;;16.20;9.57;;;3.80;86.30;;;;;;5043807;28;20599;-59
2021/01/19 01:06:34;;;;;;;13.95;9.27;;;3.80;86.20;;;;;;5039572;28;20083;-61
2021/01/19 01:09:00;;;;;;;16.88;10.65;;;3.80;86.20;;;;;;5028968;28;20041;-62
2021/01/19 01:11:25;;;;;;;15.35;10.25;;;3.70;86.30;;;;;;5040553;28;20033;-62
2021/01/19 01:13:51;;;;;;;15.95;9.95;;;3.80;86.20;;;;;;5024676;28;20059;-61
2021/01/19 01:16:16;;;;;;;14.32;10.38;;;3.80;86.00;;;;;;5042597;28;20033;-60
2021/01/19 01:18:42;;;;;;;13.93;9.43;;;3.80;86.00;;;;;;5042373;28;20033;-61
2021/01/19 01:21:11;;;;;;;14.90;9.43;;;3.80;86.00;;;;;;5045577;28;20041;-60
2021/01/19 01:23:37;;;;;;;13.75;9.30;;;3.80;85.90;;;;;;5042486;28;20119;-61
2021/01/19 01:26:03;;;;;;;17.50;9.88;;;3.80;86.00;;;;;;5040453;28;20481;-61
2021/01/19 01:28:29;;;;;;;15.05;9.98;;;3.80;85.80;;;;;;5043295;28;20170;-61
2021/01/19 01:30:54;;;;;;;13.88;9.38;;;3.80;85.90;;;;;;5043498;28;20126;-61
2021/01/19 01:33:20;;;;;;;15.25;10.15;;;3.80;85.70;;;;;;5024106;28;20495;-61
2021/01/19 01:35:45;;;;;;;14.25;9.88;;;3.80;85.70;;;;;;5044332;28;20094;-61
2021/01/19 01:38:11;;;;;;;13.20;9.05;;;3.80;85.70;;;;;;5045559;28;20069;-61
2021/01/19 01:40:36;;;;;;;14.05;8.90;;;3.80;85.70;;;;;;5043024;28;20107;-61
2021/01/19 01:43:11;;;;;;;15.93;8.57;;;3.80;85.80;;;;;;5040605;28;20041;-61
2021/01/19 01:45:36;;;;;;;;;;;3.90;85.40;;;;;;5046309;28;20090;-60
2021/01/19 01:48:02;;;;;;;16.02;8.88;;;3.90;85.30;;;;;;5053476;28;19908;-61
2021/01/19 01:50:28;;;;;;;12.38;8.63;;;3.90;85.30;;;;;;5052855;28;20368;-60
2021/01/19 01:52:55;;;;;;;16.50;10.23;;;3.80;85.40;;;;;;5052868;28;20036;-60
2021/01/19 01:55:21;;;;;;;13.23;9.95;;;3.90;85.30;;;;;;5052656;28;20049;-61
2021/01/19 01:57:47;;;;;;;12.75;9.63;;;3.90;85.10;;;;;;5052639;28;20051;-61
2021/01/19 02:00:13;;;;;;;15.98;10.05;;;3.90;85.20;;;;;;5052430;28;20037;-61
2021/01/19 02:02:55;;;;;;;15.63;10.65;;;3.80;85.30;;;;;;5052651;28;20106;-61
2021/01/19 02:05:22;;;;;;;14.95;9.82;;;3.80;85.40;;;;;;5052629;28;20039;-60
2021/01/19 02:07:54;;;;;;;17.75;9.60;;;3.70;85.80;;;;;;5052531;28;20098;-61
2021/01/19 02:11:03;;;;;;;14.00;9.27;;;3.70;85.70;;;;;;5055787;28;20041;-62
2021/01/19 02:13:48;;;;;;;12.75;9.55;;;3.70;85.90;;;;;;5052709;28;20021;-61
2021/01/19 02:16:28;;;;;;;14.88;9.70;;;3.70;85.80;;;;;;5052308;28;20033;-61
2021/01/19 02:19:09;;;;;;;20.17;11.13;;;3.70;86.00;;;;;;5034474;28;20033;-61
2021/01/19 02:22:09;;;;;;;15.48;9.77;;;3.70;86.00;;;;;;5052196;28;20108;-61
2021/01/19 02:25:12;;;;;;;16.20;9.77;;;3.80;85.70;;;;;;5051390;28;20052;-60
2021/01/19 02:28:05;;;;;;;16.30;10.43;;;3.70;85.60;;;;;;5052239;28;20117;-61
2021/01/19 02:30:59;;;;;;;14.35;10.20;;;3.70;86.00;;;;;;5052304;28;20601;-61
2021/01/19 02:34:01;;;;;;;13.85;9.75;;;3.60;86.10;;;;;;5032123;28;20468;-60
2021/01/19 02:36:50;;;;;;;17.00;11.02;;;3.80;85.60;;;;;;5038832;28;20033;-60
2021/01/19 02:39:27;;;;;;;16.00;9.93;;;3.90;84.90;;;;;;5052508;28;20025;-60
2021/01/19 02:41:54;;;;;;;12.38;9.20;;;3.90;84.90;;;;;;5052028;28;20072;-61
2021/01/19 02:44:24;;;;;;;19.20;10.75;;;4.00;84.60;;;;;;5051792;28;20109;-61
2021/01/19 02:46:52;;;;;;;16.38;10.00;;;3.90;84.50;;;;;;5051843;28;20491;-61
2021/01/19 02:49:18;;;;;;;15.32;10.13;;;3.90;84.60;;;;;;5052052;28;20033;-62
2021/01/19 02:51:46;;;;;;;14.63;10.63;;;3.90;85.10;;;;;;5051389;28;20510;-60
2021/01/19 02:54:12;;;;;;;13.00;9.32;;;3.70;85.30;;;;;;5051599;28;20032;-61
2021/01/19 02:56:53;;;;;;;14.90;10.35;;;3.80;85.40;;;;;;5033946;28;20044;-61
2021/01/19 02:59:36;;;;;;;16.48;9.80;;;3.70;85.60;;;;;;5051980;28;20025;-61
2021/01/19 03:02:09;;;;;;;14.05;9.95;;;3.70;85.60;;;;;;5051319;28;20044;-61
2021/01/19 03:04:37;;;;;;;17.83;10.38;;;3.70;85.90;;;;;;5051333;28;20041;-61
2021/01/19 03:07:06;;;;;;;15.00;10.35;;;3.70;85.90;;;;;;5051427;28;20037;-61
2021/01/19 03:09:37;;;;;;;15.85;10.15;;;3.60;85.90;;;;;;5051617;28;20502;-62
2021/01/19 03:12:04;;;;;;;17.88;9.93;;;3.60;86.00;;;;;;5050998;28;20042;-62
2021/01/19 03:14:29;;;;;;;13.68;10.18;;;3.70;86.00;;;;;;5051084;28;20033;-60
2021/01/19 03:17:04;;;;;;;17.60;9.32;;;3.60;86.10;;;;;;5051330;28;20028;-61
2021/01/19 03:19:39;;;;;;;13.45;9.55;;;3.60;86.10;;;;;;5044212;28;20385;-61
2021/01/19 03:22:05;;;;;;;14.75;9.65;;;3.60;85.80;;;;;;5037195;28;20029;-62
2021/01/19 03:24:30;;;;;;;13.10;9.80;;;3.70;85.90;;;;;;5051066;28;20040;-61
2021/01/19 03:26:56;;;;;;;13.43;8.93;;;3.60;86.10;;;;;;5051479;28;20017;-60
2021/01/19 03:29:22;;;;;;;13.60;9.30;;;3.60;86.20;;;;;;5051810;28;20043;-60
2021/01/19 03:31:48;;;;;;;12.43;9.32;;;3.70;86.00;;;;;;5033032;28;20083;-60
2021/01/19 03:34:13;;;;;;;15.80;10.23;;;3.60;86.30;;;;;;5049871;28;20031;-60
2021/01/19 03:36:39;;;;;;;14.45;9.65;;;3.60;86.30;;;;;;5053809;28;20032;-62
2021/01/19 03:39:05;;;;;;;14.20;9.25;;;3.60;86.20;;;;;;5037562;28;20120;-62
2021/01/19 03:41:31;;;;;;;17.50;9.63;;;3.60;86.30;;;;;;5055444;28;20029;-61
2021/01/19 03:43:56;;;;;;;14.55;9.35;;;3.60;86.30;;;;;;5037258;28;20041;-63
2021/01/19 03:46:22;;;;;;;15.48;9.55;;;3.60;86.40;;;;;;5055150;28;20468;-61
2021/01/19 03:48:48;;;;;;;16.08;9.93;;;3.70;86.20;;;;;;5055335;28;20396;-62
2021/01/19 03:51:14;;;;;;;17.95;9.85;;;3.70;86.20;;;;;;5037360;28;20510;-61
2021/01/19 03:53:40;;;;;;;17.75;9.82;;;3.70;86.10;;;;;;5054973;28;20524;-60
2021/01/19 03:56:05;;;;;;;13.20;9.38;;;3.70;86.00;;;;;;5054967;28;20067;-61
2021/01/19 03:58:31;;;;;;;14.35;9.45;;;3.70;86.10;;;;;;5020890;28;20037;-61
2021/01/19 04:00:56;;;;;;;14.48;9.48;;;3.70;85.90;;;;;;5055136;28;20041;-61
2021/01/19 04:03:22;;;;;;;14.32;10.45;;;3.80;85.80;;;;;;5054701;28;20098;-63
2021/01/19 04:05:48;;;;;;;11.48;8.43;;;3.80;85.70;;;;;;5054787;28;20045;-62
2021/01/19 04:08:13;;;;;;;13.63;10.05;;;3.80;85.80;;;;;;5055011;28;20060;-61
2021/01/19 04:10:39;;;;;;;10.93;8.98;;;3.90;85.60;;;;;;5054728;28;20033;-61
2021/01/19 04:13:04;;;;;;;15.25;9.80;;;3.90;85.60;;;;;;5054655;28;20495;-58
2021/01/19 04:15:30;;;;;;;12.15;9.13;;;3.80;85.60;;;;;;5036877;28;20119;-59
2021/01/19 04:17:56;;;;;;;14.13;8.93;;;3.90;85.60;;;;;;5054990;28;20492;-61
2021/01/19 04:20:21;;;;;;;13.80;9.40;;;3.80;85.60;;;;;;5040749;28;20391;-61
2021/01/19 04:22:47;;;;;;;11.75;9.02;;;3.90;85.50;;;;;;5038538;28;20456;-60
2021/01/19 04:25:12;;;;;;;14.10;9.35;;;3.80;85.70;;;;;;5055186;28;20108;-61
2021/01/19 04:27:38;;;;;;;11.60;9.27;;;3.90;85.60;;;;;;5055105;28;20041;-61
2021/01/19 04:30:07;;;;;;;12.23;8.80;;;3.90;85.60;;;;;;5036910;28;20043;-61
2021/01/19 04:32:34;;;;;;;12.05;8.88;;;3.90;85.50;;;;;;5054799;28;20037;-60
2021/01/19 04:35:00;;;;;;;11.35;9.23;;;3.90;85.50;;;;;;5054473;28;20121;-61
2021/01/19 04:37:26;;;;;;;12.98;9.30;;;3.90;85.70;;;;;;5054678;28;20064;-60
2021/01/19 04:39:52;;;;;;;11.57;8.50;;;3.90;85.50;;;;;;5054018;28;20025;-60
2021/01/19 04:42:19;;;;;;;11.95;8.43;;;4.00;85.20;;;;;;5054604;28;20032;-61
2021/01/19 04:44:46;;;;;;;14.65;8.80;;;4.00;85.10;;;;;;5053801;28;20491;-61
2021/01/19 04:47:12;;;;;;;12.45;9.10;;;4.00;85.20;;;;;;5053639;28;20041;-61
2021/01/19 04:49:39;;;;;;;11.48;8.82;;;3.90;85.40;;;;;;5054214;28;20495;-61
2021/01/19 04:52:05;;;;;;;11.43;9.00;;;4.00;85.30;;;;;;5053889;28;20055;-61
2021/01/19 04:54:41;;;;;;;11.32;8.43;;;4.10;85.10;;;;;;5053689;28;20044;-61
2021/01/19 04:57:18;;;;;;;9.70;8.23;;;4.10;84.90;;;;;;5054072;28;20032;-61
2021/01/19 04:59:52;;;;;;;10.50;8.75;;;4.00;85.00;;;;;;5053737;28;20056;-61
2021/01/19 05:02:44;;;;;;;11.93;8.40;;;4.10;84.80;;;;;;5054151;28;20075;-61
2021/01/19 05:05:23;;;;;;;11.43;8.40;;;4.10;84.70;;;;;;5015204;28;20716;-60
2021/01/19 05:08:23;;;;;;;12.90;8.60;;;4.10;84.80;;;;;;5054053;28;20037;-62
2021/01/19 05:11:33;;;;;;;11.43;8.35;;;4.10;84.60;;;;;;5033931;28;20545;-62
2021/01/19 05:14:03;;;;;;;11.07;8.60;;;4.10;84.40;;;;;;5039959;28;20135;-62
2021/01/19 05:16:35;;;;;;;12.63;8.07;;;4.10;84.40;;;;;;5053760;28;20037;-61
2021/01/19 05:19:03;;;;;;;9.73;7.82;;;4.20;84.30;;;;;;5053839;28;20033;-61
2021/01/19 05:21:29;;;;;;;11.15;8.20;;;4.10;84.20;;;;;;5054126;28;20048;-60
2021/01/19 05:23:56;;;;;;;11.43;7.95;;;4.20;84.20;;;;;;5053778;28;20065;-62
2021/01/19 05:26:22;;;;;;;10.60;8.48;;;4.20;84.50;;;;;;5054099;28;20094;-61
2021/01/19 05:28:50;;;;;;;14.00;7.90;;;4.20;84.20;;;;;;5053507;28;20033;-61
2021/01/19 05:31:16;;;;;;;11.07;8.05;;;4.20;83.80;;;;;;5053504;28;20388;-61
2021/01/19 05:33:43;;;;;;;10.25;8.20;;;4.20;84.00;;;;;;5053129;28;20492;-61
2021/01/19 05:36:11;;;;;;;11.20;8.50;;;4.20;84.70;;;;;;5053136;28;20033;-61
2021/01/19 05:38:53;;;;;;;11.40;7.80;;;4.20;84.10;;;;;;5053378;28;20033;-61
2021/01/19 05:41:40;;;;;;;10.80;7.75;;;4.20;84.00;;;;;;5033662;28;20025;-60
2021/01/19 05:44:15;;;;;;;10.20;7.95;;;4.20;83.90;;;;;;5035939;28;20089;-61
2021/01/19 05:47:01;;;;;;;11.18;7.68;;;4.20;83.80;;;;;;5053120;28;20059;-61
2021/01/19 05:49:38;;;;;;;11.38;8.75;;;4.20;84.20;;;;;;5053470;28;20049;-61
2021/01/19 05:52:11;;;;;;;10.85;8.45;;;4.20;84.20;;;;;;5052973;28;20037;-61
2021/01/19 05:54:45;;;;;;;10.65;8.45;;;4.10;84.40;;;;;;5052634;28;20021;-62
2021/01/19 05:57:15;;;;;;;14.68;8.48;;;4.20;84.40;;;;;;5052884;28;20028;-62
2021/01/19 06:00:01;;;;;;;15.70;8.95;;;4.20;84.40;;;;;;5051854;28;20037;-62
2021/01/19 06:02:43;;;;;;;11.82;7.88;;;4.20;84.30;;;;;;5053355;28;20033;-62
2021/01/19 06:05:13;;;;;;;13.35;7.85;;;4.30;84.20;;;;;;5052642;28;20045;-60
2021/01/19 06:07:40;;;;;;;12.35;7.88;;;4.20;84.00;;;;;;5053422;28;20479;-61
2021/01/19 06:10:16;;;;;;;11.50;8.38;;;4.20;84.00;;;;;;5035506;28;20049;-61
2021/01/19 06:12:42;;;;;;;11.85;7.55;;;4.20;84.00;;;;;;5053144;28;20120;-61
2021/01/19 06:15:09;;;;;;;11.02;7.93;;;4.20;84.00;;;;;;5052934;28;20068;-62
2021/01/19 06:17:35;;;;;;;10.05;7.55;;;4.20;83.80;;;;;;5053182;28;20091;-60
2021/01/19 06:20:03;;;;;;;9.02;6.82;;;4.20;83.90;;;;;;5041154;28;20041;-62
2021/01/19 06:22:29;;;;;;;11.45;8.07;;;4.20;83.70;;;;;;5032832;28;20029;-62
2021/01/19 06:24:55;;;;;;;11.20;7.80;;;4.20;83.60;;;;;;5042619;28;20441;-63
2021/01/19 06:27:24;;;;;;;10.00;7.55;;;4.20;83.60;;;;;;5052806;28;20028;-64
2021/01/19 06:29:58;;;;;;;11.60;7.40;;;4.10;83.60;;;;;;5052607;28;20476;-63
2021/01/19 06:32:24;;;;;;;11.13;8.18;;;4.20;83.40;;;;;;5052789;28;20041;-63
2021/01/19 06:34:50;;;;;;;10.55;7.32;;;4.10;83.50;;;;;;5066539;22;20032;-62
2021/01/19 06:37:27;;;;;;;13.32;7.60;;;4.20;83.20;;;;;;5052359;28;20037;-62
2021/01/19 06:39:58;;;;;;;10.68;7.47;;;4.10;83.30;;;;;;5052056;28;20045;-62
2021/01/19 06:42:31;;;;;;;10.98;7.35;;;4.10;83.30;;;;;;5034575;28;20060;-62
2021/01/19 06:44:59;;;;;;;9.27;6.93;;;4.10;83.20;;;;;;5051904;28;20064;-62
2021/01/19 06:47:26;;;;;;;13.05;8.23;;;4.20;82.90;;;;;;5034340;28;20041;-64
2021/01/19 06:49:53;;;;;;;9.15;6.90;;;4.00;83.20;;;;;;5033722;28;20472;-62
2021/01/19 06:52:20;;;;;;;10.13;7.43;;;4.10;81.90;;;;;;5051185;28;20045;-63
2021/01/19 06:54:54;;;;;;;8.90;6.82;;;4.00;82.00;;;;;;5050904;28;20020;-61
2021/01/19 06:57:28;;;;;;;11.98;6.03;;;4.00;81.60;;;;;;5051062;28;20068;-61
2021/01/19 07:00:06;;;;;;;9.18;5.68;;;4.00;81.30;;;;;;5050846;28;20428;-61
2021/01/19 07:02:36;;;;;;;13.48;6.10;;;4.00;80.20;;;;;;5033968;28;20037;-61
2021/01/19 07:05:08;;;;;;;9.38;5.03;;;4.10;79.80;;;;;;5051915;28;20136;-63
2021/01/19 07:07:37;;;;;;;12.07;4.90;;;4.10;79.40;;;;;;5052649;28;20033;-63
2021/01/19 07:10:09;;;;;;;13.45;5.65;;;4.10;79.30;;;;;;5051458;28;20057;-63
2021/01/19 07:12:57;;;;;;;7.63;4.68;;;4.10;79.00;;;;;;5034537;28;20033;-66
2021/01/19 07:15:54;;;;;;;8.95;5.05;;;4.00;79.40;;;;;;5052107;28;20029;-61
2021/01/19 07:18:50;;;;;;;7.68;4.78;;;4.00;79.70;;;;;;5051757;28;20454;-61
2021/01/19 07:21:20;;;;;;;10.57;5.00;;;4.00;80.00;;;;;;5045206;28;20368;-61
2021/01/19 07:23:45;;;;;;;7.88;5.10;;;4.10;79.90;;;;;;5033321;28;20079;-61
2021/01/19 07:26:22;;;;;;;6.55;4.93;;;4.00;79.90;;;;;;5051554;28;20056;-64
2021/01/19 07:28:49;;;;;;;8.77;5.15;;;4.10;80.00;;;;;;5033904;28;20134;-62
2021/01/19 07:31:17;;;;;;;11.48;5.88;;;4.20;79.70;;;;;;5050977;28;20037;-62
2021/01/19 07:33:47;;;;;;;7.03;4.72;;;4.10;79.70;;;;;;5051201;28;20418;-61
2021/01/19 07:36:17;;;;;;;9.68;4.93;;;4.20;79.50;;;;;;5051014;28;20472;-62
2021/01/19 07:38:43;;;;;;;11.25;5.10;;;4.20;79.40;;;;;;5051825;28;20086;-63
2021/01/19 07:41:09;;;;;;;10.27;4.82;;;4.30;79.20;;;;;;5051660;28;20170;-61
2021/01/19 07:43:36;;;;;;;8.07;5.10;;;4.30;79.10;;;;;;5051048;28;20029;-63
2021/01/19 07:46:02;;;;;;;8.68;5.05;;;4.30;79.30;;;;;;5051101;28;20400;-64
2021/01/19 07:48:37;;;;;;;9.75;5.00;;;4.30;79.40;;;;;;5051507;28;20040;-62
2021/01/19 07:51:13;;;;;;;5.93;5.13;;;4.30;79.60;;;;;;5051196;28;20048;-62
2021/01/19 07:53:57;;;;;;;6.47;5.00;;;4.30;79.50;;;;;;5031396;28;20036;-63
2021/01/19 07:56:29;;;;;;;12.43;5.40;;;4.20;79.60;;;;;;5051124;28;20041;-63
2021/01/19 07:58:57;;;;;;;7.28;4.47;;;4.30;79.50;;;;;;5033343;28;20506;-62
2021/01/19 08:01:31;;;;;;;6.30;4.88;;;4.30;79.10;;;;;;5051047;28;20565;-61
2021/01/19 08:04:09;;;;;;;7.60;5.03;;;4.20;79.30;;;;;;5051141;28;20152;-63
2021/01/19 08:06:34;;;;;;;6.28;4.38;;;4.30;79.10;;;;;;5033293;28;20113;-61
2021/01/19 08:09:18;;;;;;;10.68;4.80;;;4.20;79.20;;;;;;5051294;28;20044;-62
2021/01/19 08:11:45;;;;;;;7.78;4.45;;;4.20;78.90;;;;;;5038154;28;20053;-62
2021/01/19 08:14:11;;;;;;;10.40;4.40;;;4.10;79.10;;;;;;5031557;28;20116;-62
2021/01/19 08:16:37;;;;;;;9.05;4.18;;;4.10;79.00;;;;;;5044869;28;20047;-62
2021/01/19 08:19:10;;;;;;;7.80;4.22;;;4.10;79.10;;;;;;5045081;28;20049;-61
2021/01/19 08:21:46;;;;;;;4.95;3.70;;;4.10;78.70;;;;;;5051132;28;20491;-61
2021/01/19 08:24:11;;;;;;;11.10;4.07;;;4.10;79.00;;;;;;5053818;28;20036;-61
2021/01/19 08:26:37;;;;;;;9.88;4.93;;;4.10;78.60;;;;;;5027650;28;20046;-61
2021/01/19 08:29:05;;;;;;;7.93;3.95;;;4.10;78.40;;;;;;5031948;28;20036;-60
2021/01/19 08:31:33;;;;;;;8.38;4.15;;;4.10;78.20;;;;;;5045153;28;20044;-64
2021/01/19 08:34:00;;;;;;;12.23;4.45;;;4.10;78.20;;;;;;5052808;28;20036;-64
2021/01/19 08:36:27;;;;;;;9.77;4.65;;;4.20;77.80;;;;;;5036324;28;20048;-63
2021/01/19 08:38:57;;;;;;;12.30;3.78;;;4.20;77.50;;;;;;5054575;28;20075;-64
2021/01/19 08:41:23;;;;;;;5.68;3.67;;;4.20;77.50;;;;;;5037772;28;20487;-64
2021/01/19 08:44:04;;;;;;;10.02;4.20;;;4.30;77.20;;;;;;5054903;28;20044;-62
2021/01/19 08:46:31;;;;;;;5.55;3.70;;;4.20;76.90;;;;;;5054648;28;20021;-63
2021/01/19 08:49:08;;;;;;;7.40;4.03;;;4.20;77.10;;;;;;5054302;28;20080;-62
2021/01/19 08:51:34;;;;;;;8.85;3.85;;;4.20;77.00;;;;;;5036299;28;20467;-62
2021/01/19 08:54:01;;;;;;;8.38;4.13;;;4.30;76.60;;;;;;5035283;28;20067;-60
2021/01/19 08:56:28;;;;;;;8.30;3.90;;;4.30;76.50;;;;;;5036177;28;20041;-62
2021/01/19 08:58:54;;;;;;;8.45;4.45;;;4.30;76.30;;;;;;5054421;28;20044;-64
2021/01/19 09:01:20;;;;;;;7.72;3.97;;;4.30;76.50;;;;;;5036185;28;20392;-63
2021/01/19 09:04:01;;;;;;;5.53;3.20;;;4.20;76.40;;;;;;5054012;28;20122;-63
2021/01/19 09:06:28;;;;;;;8.52;4.10;;;4.20;76.50;;;;;;5034211;28;20055;-62
2021/01/19 09:08:58;;;;;;;7.63;3.50;;;4.30;76.30;;;;;;5054272;28;20367;-63
2021/01/19 09:11:30;;;;;;;8.93;4.10;;;4.30;76.30;;;;;;5054028;28;20140;-64
2021/01/19 09:14:09;;;;;;;6.82;4.20;;;4.30;76.30;;;;;;5033989;28;20054;-63
2021/01/19 09:16:37;;;;;;;7.32;4.10;;;4.30;75.90;;;;;;5037602;28;20522;-63
2021/01/19 09:19:06;;;;;;;8.05;3.80;;;4.40;75.90;;;;;;5044944;28;20131;-62
2021/01/19 09:21:32;;;;;;;10.80;3.67;;;4.40;75.90;;;;;;5054253;28;20037;-64
2021/01/19 09:23:59;;;;;;;7.57;3.30;;;4.40;75.50;;;;;;5044232;28;20024;-66
2021/01/19 09:26:24;;;;;;;10.32;3.90;;;4.40;75.50;;;;;;5031931;28;20045;-66
2021/01/19 09:28:51;;;;;;;7.00;4.28;;;4.30;75.80;;;;;;5018874;28;20064;-62
2021/01/19 09:31:24;;;;;;;8.73;4.32;;;4.30;75.90;;;;;;5036701;28;20083;-65
2021/01/19 09:33:52;;;;;;;8.95;3.97;;;4.40;75.60;;;;;;5018545;28;20120;-63
2021/01/19 09:36:18;;;;;;;7.05;3.85;;;4.40;75.70;;;;;;5046497;28;20443;-64
2021/01/19 09:38:47;;;;;;;9.30;4.63;;;4.50;75.50;;;;;;5040736;28;20542;-63
2021/01/19 09:41:19;;;;;;;8.18;3.70;;;4.50;75.30;;;;;;5034714;28;20115;-62
2021/01/19 09:43:50;;;;;;;6.30;3.72;;;4.50;75.10;;;;;;5051234;28;20051;-63
2021/01/19 09:46:20;;;;;;;7.18;4.15;;;4.50;75.30;;;;;;5053484;28;20037;-64
2021/01/19 09:48:48;;;;;;;8.75;3.80;;;4.40;75.30;;;;;;5053286;28;20021;-62
2021/01/19 09:51:13;;;;;;;6.90;4.03;;;4.50;75.30;;;;;;5052613;28;20040;-61
2021/01/19 09:53:42;;;;;;;7.72;3.95;;;4.40;75.70;;;;;;5052940;28;20033;-64
2021/01/19 09:56:15;;;;;;;6.82;4.00;;;4.40;75.90;;;;;;5053415;28;20116;-63
2021/01/19 09:58:41;;;;;;;8.32;3.80;;;4.30;76.10;;;;;;5052610;28;20037;-64
2021/01/19 10:01:06;;;;;;;9.43;4.70;;;4.30;76.30;;;;;;5035219;28;20036;-63
2021/01/19 10:03:34;;;;;;;12.85;5.03;;;4.30;77.20;;;;;;5053023;28;20040;-61
2021/01/19 10:06:07;;;;;;;12.23;4.40;;;4.30;77.20;;;;;;5053244;28;20043;-63
2021/01/19 10:08:36;;;;;;;10.98;4.53;;;4.30;77.60;;;;;;5040800;28;20041;-62
2021/01/19 10:11:02;;;;;;;12.38;5.30;;;4.30;78.20;;;;;;5052439;28;20044;-63
2021/01/19 10:13:31;;;;;;;7.65;4.00;;;4.20;79.30;;;;;;5034945;28;20052;-63
2021/01/19 10:15:58;;;;;;;10.02;4.10;;;4.00;80.40;;;;;;5052784;28;20060;-63
2021/01/19 10:18:24;;;;;;;13.68;4.43;;;3.90;81.10;;;;;;5052650;28;20033;-63
2021/01/19 10:20:50;;;;;;;11.70;6.13;;;3.90;81.60;;;;;;5034427;28;20120;-62
2021/01/19 10:23:26;;;;;;;8.38;4.80;;;3.80;82.40;;;;;;5039774;28;20073;-63
2021/01/19 10:26:12;;;;;;;9.10;4.45;;;3.80;83.30;;;;;;5034063;28;20479;-63
2021/01/19 10:28:43;;;;;;;8.02;3.95;;;3.70;84.10;;;;;;5034257;28;20051;-62
2021/01/19 10:31:21;;;;;;;8.15;4.45;;;3.70;85.10;;;;;;5052165;28;20175;-64
2021/01/19 10:33:57;;;;;;;10.27;4.85;;;3.60;85.70;;;;;;5033510;28;20369;-64
2021/01/19 10:36:27;;;;;;;10.10;5.10;;;3.60;86.00;;;;;;5052055;28;20037;-64
2021/01/19 10:38:54;;;;;;;8.35;4.93;;;3.50;86.60;;;;;;5051842;28;20037;-64
2021/01/19 10:41:28;;;;;;;8.32;4.70;;;3.60;86.40;;;;;;5052873;28;20036;-65
2021/01/19 10:43:55;;;;;;;11.77;5.30;;;3.60;86.70;;;;;;5034816;28;20057;-64
2021/01/19 10:46:25;;;;;;;8.23;4.57;;;3.60;86.50;;;;;;5033882;28;20108;-64
2021/01/19 10:49:08;;;;;;;14.20;5.22;;;3.60;86.50;;;;;;5034467;28;20083;-64
2021/01/19 10:51:35;;;;;;;6.68;4.38;;;3.60;86.10;;;;;;5034784;28;20052;-65
2021/01/19 10:54:08;;;;;;;10.70;4.55;;;3.60;86.20;;;;;;5034442;28;20071;-63
2021/01/19 10:56:36;;;;;;;8.60;5.30;;;3.60;86.40;;;;;;5034213;28;20036;-63
2021/01/19 10:59:01;;;;;;;8.00;4.40;;;3.50;86.20;;;;;;5051743;28;20073;-63
2021/01/19 11:01:28;;;;;;;8.40;4.32;;;3.60;85.90;;;;;;5053313;28;20060;-63
2021/01/19 11:03:53;;;;;;;8.82;4.68;;;3.50;86.10;;;;;;5053089;28;20048;-63
2021/01/19 11:06:19;;;;;;;10.07;4.25;;;3.50;86.70;;;;;;5022280;28;20040;-62
2021/01/19 11:08:46;;;;;;;11.63;4.95;;;3.50;86.60;;;;;;5051239;28;20126;-64
2021/01/19 11:11:12;;;;;;;9.60;4.55;;;3.50;86.10;;;;;;5013263;28;20111;-62
2021/01/19 11:13:38;;;;;;;6.57;3.97;;;3.60;86.50;;;;;;5051152;28;20452;-63
2021/01/19 11:16:04;;;;;;;5.75;3.92;;;3.80;85.20;;;;;;5050882;28;20116;-62
2021/01/19 11:18:30;;;;;;;8.25;4.00;;;3.80;85.10;;;;;;5051720;28;20021;-62
2021/01/19 11:20:55;;;;;;;7.88;4.00;;;3.70;85.20;;;;;;5038631;28;20128;-62
2021/01/19 11:23:21;;;;;;;7.43;4.32;;;3.70;85.00;;;;;;5042653;28;20479;-62
2021/01/19 11:25:47;;;;;;;5.88;3.90;;;3.60;84.90;;;;;;5050943;28;20531;-63
2021/01/19 11:28:13;;;;;;;8.20;4.30;;;3.60;85.80;;;;;;5051886;28;20492;-63
2021/01/19 11:30:39;;;;;;;7.70;4.07;;;3.60;85.30;;;;;;5051701;28;20029;-61
2021/01/19 11:33:05;;;;;;;8.23;4.03;;;3.40;86.30;;;;;;5052013;28;20025;-61
2021/01/19 11:35:35;;;;;;;6.93;4.07;;;3.40;86.40;;;;;;5016918;28;20041;-62
2021/01/19 11:38:03;;;;;;;6.80;3.85;;;3.50;86.00;;;;;;5046280;28;20025;-62
2021/01/19 11:40:30;;;;;;;4.93;3.28;;;3.50;86.20;;;;;;5040564;28;20040;-63
2021/01/19 11:42:56;;;;;;;6.07;3.75;;;3.50;86.30;;;;;;5048637;28;20087;-62
2021/01/19 11:45:23;;;;;;;6.43;3.75;;;3.50;86.90;;;;;;5033585;28;20071;-63
2021/01/19 11:47:48;;;;;;;6.55;3.50;;;3.40;86.90;;;;;;5051680;28;20067;-63
2021/01/19 11:50:14;;;;;;;5.90;3.95;;;3.30;87.40;;;;;;5020781;28;20078;-63
2021/01/19 11:52:40;;;;;;;4.97;3.45;;;3.20;88.40;;;;;;5048108;28;20071;-64
2021/01/19 11:55:06;;;;;;;6.38;3.60;;;3.10;89.30;;;;;;5013101;28;20093;-65
2021/01/19 11:57:33;;;;;;;5.90;3.38;;;3.00;89.90;;;;;;5022546;28;20407;-66
2021/01/19 11:59:58;;;;;;;5.75;4.35;;;2.90;90.20;;;;;;5023660;28;20037;-66
2021/01/19 12:02:24;;;;;;;6.65;3.80;;;2.80;90.50;;;;;;5050114;28;20151;-64
2021/01/19 12:04:50;;;;;;;4.90;4.03;;;2.80;90.70;;;;;;5024276;28;20449;-64
2021/01/19 12:07:15;;;;;;;5.45;3.63;;;2.80;90.70;;;;;;5031579;28;20443;-66
2021/01/19 12:09:41;;;;;;;7.15;4.50;;;2.70;90.90;;;;;;5009347;28;20065;-64
2021/01/19 12:12:08;;;;;;;7.65;3.97;;;2.60;91.10;;;;;;5028812;28;20116;-64
2021/01/19 12:14:33;;;;;;;7.15;3.78;;;2.50;91.30;;;;;;5036542;28;20116;-63
2021/01/19 12:16:59;;;;;;;4.88;3.97;;;2.50;91.40;;;;;;5037008;28;20564;-62
2021/01/19 12:19:25;;;;;;;5.90;4.13;;;2.50;91.50;;;;;;5054720;28;20028;-63
2021/01/19 12:21:56;;;;;;;5.88;4.00;;;2.50;91.40;;;;;;5035189;28;20099;-63
2021/01/19 12:24:22;;;;;;;4.72;3.78;;;2.60;91.40;;;;;;5047986;28;20036;-65
2021/01/19 12:26:51;;;;;;;7.15;5.15;;;2.50;91.30;;;;;;5041952;28;20044;-63
2021/01/19 12:29:18;;;;;;;7.35;4.93;;;2.50;91.70;;;;;;5019541;28;20037;-61
2021/01/19 12:31:44;;;;;;;6.35;4.68;;;2.50;91.50;;;;;;5054151;28;20041;-63
2021/01/19 12:34:10;;;;;;;6.65;5.05;;;2.60;91.50;;;;;;5033872;28;20410;-63
2021/01/19 12:36:36;;;;;;;6.28;4.90;;;2.50;91.50;;;;;;5069065;22;20132;-58
2021/01/19 12:39:02;;;;;;;9.50;5.00;;;2.50;91.70;;;;;;5076910;28;20051;-63
2021/01/19 12:41:29;;;;;;;7.85;5.20;;;2.60;91.50;;;;;;5076663;28;20040;-63
2021/01/19 12:43:55;;;;;;;5.35;4.53;;;2.60;91.60;;;;;;5034959;28;20089;-61
2021/01/19 12:46:21;;;;;;;6.65;4.68;;;2.60;91.50;;;;;;5063114;28;20045;-64
2021/01/19 12:48:46;;;;;;;5.38;4.47;;;2.60;91.60;;;;;;5067231;28;20035;-60
2021/01/19 12:51:16;;;;;;;5.55;4.30;;;2.60;91.50;;;;;;5051698;28;20120;-60
2021/01/19 12:53:42;;;;;;;7.57;4.65;;;2.60;91.60;;;;;;5057240;28;20028;-65
2021/01/19 12:56:12;;;;;;;10.07;4.53;;;2.60;91.60;;;;;;5056742;28;20058;-61
2021/01/19 12:58:38;;;;;;;5.15;3.95;;;2.60;91.60;;;;;;5056898;28;20506;-63
2021/01/19 13:01:04;;;;;;;6.13;3.95;;;2.60;91.60;;;;;;5061608;28;20052;-67
2021/01/19 13:03:30;;;;;;;6.68;4.70;;;2.60;91.70;;;;;;5037519;28;20102;-63